Phoenix, AZ

2:17 PM MST on July 29, 2015 (GMT -0700)
APRSWXNET | | Change Station
CLOSE
Current Station
Personal Weather Station
Location: Phoenix, AZ
Elevation: 1115 ft
Nearby Weather Stations

Elev 1115 ft 33.49 °N, 112.07 °W | Updated 31 minutes ago

Mostly Cloudy
Mostly Cloudy
95 °F
Feels Like 100 °F
N
0
Wind Variable Wind from West
Gusts 7.0 mph

Today
High -- | Low -- °F
--% Chance of Precip.
Yesterday
High -- | Low -- °F
Precip. -- in
5:38 AM 7:30 PM
Waxing Gibbous, 97% visible
Pressure 29.88 in
Visibility 10.0 miles
Clouds Few 7500 ft
Scattered Clouds 15000 ft
Mostly Cloudy 18000 ft
Mostly Cloudy 25000 ft
Heat Index 100 °F
Dew Point 68 °F
Humidity 41%
Rainfall in
Snow Depth Not available.
UV 6 out of 12
Pollen 3.50 out of 12
Air Quality Not available.
Flu Activity Not available.
METAR KPHX 292051Z 26004KT 10SM FEW075 SCT150 BKN180 BKN250 36/17 A2994 RMK AO2 SLP119 CB DSNT NE AND E T03560172 58010

More Conditions Fewer Conditions

Pressure 29.88 in
Visibility 10.0 miles
Clouds Few 7500 ft
Scattered Clouds 15000 ft
Mostly Cloudy 18000 ft
Mostly Cloudy 25000 ft
Heat Index 100 °F
Dew Point 68 °F
Humidity 41%
Rainfall in
Snow Depth Not available.
UV 6 out of 12
Pollen 3.50 out of 12
Air Quality Not available.
Flu Activity Not available.
METAR KPHX 292051Z 26004KT 10SM FEW075 SCT150 BKN180 BKN250 36/17 A2994 RMK AO2 SLP119 CB DSNT NE AND E T03560172 58010

More Conditions Fewer Conditions

10-Day Weather Forecast

×

Almanac

Astronomy

Jul. 29, 2015 Rise Set
Actual Time
Civil Twilight
Nautical Twilight
Astronomical Twilight
Moon
Length of Visible Light
Length of Day
Tomorrow will be .
, % of the Moon is Illuminated

Today's Extremes

State Highs State Lows

Community

WunderPhotos

Upload Photos

1,842,175 photos uploaded!

WunderBlogs® & News

Nearby

Air Quality

  Air Quality AQ Index Pollutant
Not available.

Snow Depth

Station Depth Elevation

Earthquake Activity

City Distance Mag. Time & Date
Minimum magnitude displayed is 2.5.

Coastal Water Temperatures

Place Temperature

Stations

Nearby Weather Stations

Station Location Temp. Windchill Dew Point Humidity Wind Precip. Elev Updated Type